createdAt,value
2022-11-17T00:00:28.481Z,76.87
2022-11-17T00:01:30.221Z,77.01
2022-11-17T00:02:31.921Z,77.35
2022-11-17T00:03:34.093Z,77.14
2022-11-17T00:04:35.993Z,76.60
2022-11-17T00:05:37.628Z,77.33
2022-11-17T00:06:39.305Z,76.94
2022-11-17T00:07:42.368Z,75.83
2022-11-17T00:08:44.084Z,76.44
2022-11-17T00:09:45.809Z,76.26
2022-11-17T00:10:47.453Z,75.81
2022-11-17T00:12:08.523Z,75.68
2022-11-17T00:13:29.613Z,75.52
2022-11-17T00:14:36.951Z,75.13
2022-11-17T00:15:42.980Z,75.16
2022-11-17T00:16:50.051Z,75.12
2022-11-17T00:18:15.314Z,75.37
2022-11-17T00:19:35.561Z,74.83
2022-11-17T00:20:59.633Z,74.80
2022-11-17T00:22:01.292Z,74.50
2022-11-17T00:23:06.620Z,74.97
2022-11-17T00:24:08.482Z,75.65
2022-11-17T00:25:10.193Z,75.10
2022-11-17T00:26:11.843Z,74.61
2022-11-17T00:27:13.564Z,75.01
2022-11-17T00:28:15.202Z,74.36
2022-11-17T00:29:16.864Z,74.89
2022-11-17T00:30:43.960Z,75.00
2022-11-17T00:32:04.179Z,75.23
2022-11-17T00:33:24.100Z,74.27
2022-11-17T00:34:25.773Z,74.83
2022-11-17T00:35:27.441Z,74.38
2022-11-17T00:36:29.109Z,74.58
2022-11-17T00:37:36.272Z,74.78
2022-11-17T00:38:37.947Z,74.95
2022-11-17T00:39:39.632Z,74.19
2022-11-17T00:40:41.278Z,74.73
2022-11-17T00:41:43.101Z,73.87
2022-11-17T00:42:44.758Z,73.30
2022-11-17T00:43:46.423Z,73.69
2022-11-17T00:44:48.114Z,73.05
2022-11-17T00:45:49.775Z,73.79
2022-11-17T00:46:51.501Z,73.44
2022-11-17T00:47:53.147Z,73.30
2022-11-17T00:48:55.032Z,73.30
2022-11-17T00:49:56.669Z,73.30
2022-11-17T00:51:02.840Z,73.65
2022-11-17T00:52:04.723Z,72.99
2022-11-17T00:53:06.348Z,73.32
2022-11-17T00:54:11.503Z,72.63
2022-11-17T00:55:13.466Z,73.35
2022-11-17T00:56:15.556Z,72.87
2022-11-17T00:57:17.216Z,72.98
2022-11-17T00:58:18.892Z,72.81
2022-11-17T00:59:20.689Z,73.07
2022-11-17T01:00:22.437Z,72.59
2022-11-17T01:01:24.489Z,73.30
2022-11-17T01:02:26.189Z,72.92
2022-11-17T01:03:27.857Z,72.30
2022-11-17T01:04:29.597Z,73.30
2022-11-17T01:05:33.131Z,72.83
2022-11-17T01:06:43.623Z,72.65
2022-11-17T01:07:47.045Z,72.28
2022-11-17T01:08:48.701Z,72.29
2022-11-17T01:09:50.415Z,72.84
2022-11-17T01:10:52.069Z,72.41
2022-11-17T01:11:54.089Z,73.07
2022-11-17T01:12:55.755Z,72.91
2022-11-17T01:13:59.972Z,73.20
2022-11-17T01:15:01.700Z,72.51
2022-11-17T01:16:17.863Z,72.06
2022-11-17T01:17:19.541Z,71.83
2022-11-17T01:18:21.198Z,71.81
2022-11-17T01:19:23.805Z,72.12
2022-11-17T01:20:25.513Z,72.29
2022-11-17T01:21:28.779Z,71.72
2022-11-17T01:22:30.480Z,72.39
2022-11-17T01:23:33.015Z,71.83
2022-11-17T01:24:34.996Z,72.18
2022-11-17T01:25:38.279Z,72.03
2022-11-17T01:26:41.231Z,71.72
2022-11-17T01:27:43.091Z,71.77
2022-11-17T01:28:45.117Z,72.12
2022-11-17T01:29:46.845Z,72.06
2022-11-17T01:30:48.539Z,71.83
2022-11-17T01:31:51.887Z,72.45
2022-11-17T01:32:53.539Z,71.87
2022-11-17T01:33:55.945Z,72.55
2022-11-17T01:34:57.601Z,72.02
2022-11-17T01:36:08.496Z,72.01
2022-11-17T01:37:21.997Z,72.06
2022-11-17T01:38:23.709Z,71.91
2022-11-17T01:39:27.187Z,71.82
2022-11-17T01:40:29.045Z,72.25
2022-11-17T01:41:30.691Z,71.80
2022-11-17T01:42:32.412Z,71.97
2022-11-17T01:43:47.425Z,72.56
2022-11-17T01:44:59.453Z,72.00
2022-11-17T01:46:01.159Z,71.90
2022-11-17T01:47:04.788Z,72.44
2022-11-17T01:48:08.180Z,72.57
2022-11-17T01:49:21.706Z,72.07
2022-11-17T01:50:49.378Z,72.72
2022-11-17T01:52:00.732Z,72.77
2022-11-17T01:53:12.693Z,73.16
2022-11-17T01:54:17.809Z,73.35
2022-11-17T01:55:22.729Z,73.94
2022-11-17T01:56:29.272Z,73.85
2022-11-17T01:57:36.645Z,74.27
2022-11-17T01:58:44.172Z,73.87
2022-11-17T01:59:55.609Z,74.16
2022-11-17T02:00:57.325Z,74.28
2022-11-17T02:01:59.160Z,74.69
2022-11-17T02:03:01.586Z,74.93
2022-11-17T02:04:03.305Z,74.06
2022-11-17T02:05:17.058Z,74.85
2022-11-17T02:06:37.726Z,74.67
2022-11-17T02:07:42.372Z,74.98
2022-11-17T02:08:47.211Z,74.38
2022-11-17T02:09:49.619Z,74.94
2022-11-17T02:10:52.387Z,74.03
2022-11-17T02:11:58.641Z,74.09
2022-11-17T02:13:01.001Z,74.18
2022-11-17T02:14:04.345Z,74.16
2022-11-17T02:15:06.592Z,74.26
2022-11-17T02:16:15.771Z,74.88
2022-11-17T02:17:18.646Z,74.49
2022-11-17T02:18:20.644Z,74.93
2022-11-17T02:19:27.204Z,75.22
2022-11-17T02:20:44.482Z,75.46
2022-11-17T02:21:55.012Z,75.21
2022-11-17T02:23:17.712Z,75.45
2022-11-17T02:24:25.030Z,75.28
2022-11-17T02:25:45.505Z,75.82
2022-11-17T02:26:53.003Z,75.17
2022-11-17T02:28:13.149Z,74.67
2022-11-17T02:29:17.414Z,75.39
2022-11-17T02:30:21.241Z,74.84
2022-11-17T02:31:38.188Z,74.95
2022-11-17T02:32:52.221Z,74.65
2022-11-17T02:34:16.079Z,74.54
2022-11-17T02:35:38.617Z,74.80
2022-11-17T02:36:58.606Z,74.84
2022-11-17T02:38:09.199Z,74.66
2022-11-17T02:39:16.895Z,75.37
2022-11-17T02:40:31.324Z,75.14
2022-11-17T02:42:00.416Z,75.35
2022-11-17T02:43:29.262Z,75.60
2022-11-17T02:44:40.078Z,74.97
2022-11-17T02:45:50.164Z,75.55
2022-11-17T02:47:02.898Z,76.10
2022-11-17T02:48:11.328Z,76.09
2022-11-17T02:49:25.978Z,75.63
2022-11-17T02:50:29.931Z,75.97
2022-11-17T02:51:33.143Z,75.13
2022-11-17T02:52:35.012Z,74.93
2022-11-17T02:53:38.735Z,75.09
2022-11-17T02:54:40.667Z,74.80
2022-11-17T02:55:50.315Z,73.69
2022-11-17T02:56:52.028Z,74.35
2022-11-17T02:57:53.760Z,74.06
2022-11-17T02:59:00.824Z,74.26
2022-11-17T03:00:12.764Z,73.92
2022-11-17T03:01:20.298Z,74.37
2022-11-17T03:02:37.338Z,74.04
2022-11-17T03:04:12.948Z,74.03
2022-11-17T03:05:27.997Z,74.80
2022-11-17T03:06:44.291Z,74.12
2022-11-17T03:07:56.994Z,74.85
2022-11-17T03:09:10.813Z,74.52
2022-11-17T03:10:33.737Z,74.40
2022-11-17T03:12:21.861Z,73.92
2022-11-17T03:13:51.226Z,74.29
2022-11-17T03:15:04.801Z,74.36
2022-11-17T03:16:25.135Z,73.87
2022-11-17T03:17:47.763Z,74.28
2022-11-17T03:19:01.462Z,74.28
2022-11-17T03:20:16.714Z,75.02
2022-11-17T03:21:38.525Z,75.30
2022-11-17T03:22:41.768Z,74.74
2022-11-17T03:23:52.755Z,75.48
2022-11-17T03:25:01.612Z,74.82
2022-11-17T03:26:07.730Z,74.60
2022-11-17T03:27:19.238Z,74.82
2022-11-17T03:28:27.294Z,75.09
2022-11-17T03:29:32.789Z,74.70
2022-11-17T03:30:37.857Z,74.01
2022-11-17T03:31:41.542Z,74.21
2022-11-17T03:32:49.437Z,74.14
2022-11-17T03:33:51.830Z,74.13
2022-11-17T03:34:58.970Z,73.78
2022-11-17T03:36:07.026Z,73.57
2022-11-17T03:37:12.080Z,73.63
2022-11-17T03:38:16.428Z,73.33
2022-11-17T03:39:18.021Z,73.60
2022-11-17T03:40:23.526Z,74.07
2022-11-17T03:41:28.578Z,74.15
2022-11-17T03:42:34.727Z,74.09
2022-11-17T03:43:38.316Z,74.18
2022-11-17T03:44:43.643Z,73.91
2022-11-17T03:45:52.781Z,75.24
2022-11-17T03:47:10.865Z,74.16
2022-11-17T03:48:33.959Z,74.64
2022-11-17T03:49:43.880Z,74.55
2022-11-17T03:50:55.564Z,75.63
2022-11-17T03:51:58.065Z,74.79
2022-11-17T03:53:02.355Z,75.81
2022-11-17T03:54:04.450Z,75.41
2022-11-17T03:55:07.880Z,75.47
2022-11-17T03:56:33.977Z,75.30
2022-11-17T03:57:46.457Z,75.00
2022-11-17T03:59:04.993Z,75.35
2022-11-17T04:00:09.378Z,75.63
2022-11-17T04:01:11.989Z,75.51
2022-11-17T04:02:17.497Z,75.49
2022-11-17T04:03:22.300Z,75.79
2022-11-17T04:04:24.099Z,75.00
2022-11-17T04:05:25.921Z,75.08
2022-11-17T04:06:27.657Z,75.38
2022-11-17T04:07:29.414Z,74.90
2022-11-17T04:08:31.925Z,75.24
2022-11-17T04:09:33.622Z,74.38
2022-11-17T04:10:55.221Z,75.03
2022-11-17T04:12:15.612Z,75.13
2022-11-17T04:13:36.170Z,75.16
2022-11-17T04:14:56.340Z,74.53
2022-11-17T04:15:59.263Z,74.50
2022-11-17T04:17:01.095Z,74.85
2022-11-17T04:18:03.859Z,75.73
2022-11-17T04:19:05.539Z,75.13
2022-11-17T04:20:07.971Z,75.61
2022-11-17T04:21:09.616Z,74.92
2022-11-17T04:22:11.246Z,75.00
2022-11-17T04:23:14.868Z,74.57
2022-11-17T04:24:16.575Z,75.41
2022-11-17T04:25:38.208Z,75.22
2022-11-17T04:26:58.643Z,75.28
2022-11-17T04:28:18.526Z,75.23
2022-11-17T04:29:20.178Z,75.08
2022-11-17T04:30:21.824Z,75.12
2022-11-17T04:31:26.591Z,74.75
2022-11-17T04:32:28.253Z,74.69
2022-11-17T04:33:29.920Z,74.91
2022-11-17T04:34:31.622Z,74.88
2022-11-17T04:35:33.266Z,75.03
2022-11-17T04:36:45.081Z,75.63
2022-11-17T04:37:46.833Z,74.83
2022-11-17T04:38:51.224Z,74.80
2022-11-17T04:39:52.882Z,75.36
2022-11-17T04:41:23.124Z,74.67
2022-11-17T04:42:24.807Z,74.41
2022-11-17T04:43:26.479Z,74.85
2022-11-17T04:44:30.069Z,74.98
2022-11-17T04:45:34.465Z,74.88
2022-11-17T04:46:38.107Z,74.88
2022-11-17T04:47:39.750Z,75.57
2022-11-17T04:48:41.435Z,75.32
2022-11-17T04:49:43.186Z,75.62
2022-11-17T04:50:44.849Z,75.74
2022-11-17T04:51:47.121Z,75.32
2022-11-17T04:52:48.822Z,75.44
2022-11-17T04:53:51.179Z,75.93
2022-11-17T04:54:52.816Z,75.69
2022-11-17T04:55:54.535Z,75.11
2022-11-17T04:56:56.652Z,75.45
2022-11-17T04:57:58.319Z,75.50
2022-11-17T04:59:00.054Z,75.09
2022-11-17T05:00:01.720Z,75.32
2022-11-17T05:01:13.090Z,75.81
2022-11-17T05:02:14.922Z,75.83
2022-11-17T05:03:16.705Z,75.51
2022-11-17T05:04:43.709Z,75.94
2022-11-17T05:05:46.699Z,76.22
2022-11-17T05:06:48.318Z,76.40
2022-11-17T05:07:50.005Z,76.32
2022-11-17T05:08:55.967Z,76.19
2022-11-17T05:09:57.606Z,76.40
2022-11-17T05:11:18.063Z,76.23
2022-11-17T05:12:38.165Z,76.36
2022-11-17T05:13:39.817Z,76.03
2022-11-17T05:14:41.531Z,76.74
2022-11-17T05:16:01.500Z,76.42
2022-11-17T05:17:10.466Z,76.52
2022-11-17T05:18:13.221Z,76.76
2022-11-17T05:19:18.608Z,76.83
2022-11-17T05:20:20.247Z,77.18
2022-11-17T05:21:21.876Z,76.89
2022-11-17T05:22:42.596Z,76.78
2022-11-17T05:23:56.576Z,76.24
2022-11-17T05:24:58.399Z,76.23
2022-11-17T05:26:00.055Z,76.31
2022-11-17T05:27:01.721Z,76.52
2022-11-17T05:28:03.383Z,76.68
2022-11-17T05:29:07.038Z,76.34
2022-11-17T05:30:09.444Z,76.52
2022-11-17T05:31:11.152Z,76.34
2022-11-17T05:32:12.828Z,76.80
2022-11-17T05:33:14.485Z,76.26
2022-11-17T05:34:17.567Z,76.51
2022-11-17T05:35:19.233Z,75.77
2022-11-17T05:36:22.245Z,76.63
2022-11-17T05:37:23.933Z,76.14
2022-11-17T05:38:25.677Z,76.05
2022-11-17T05:39:27.360Z,75.54
2022-11-17T05:40:29.002Z,75.67
2022-11-17T05:41:30.997Z,75.72
2022-11-17T05:42:32.802Z,75.80
2022-11-17T05:43:35.003Z,75.37
2022-11-17T05:44:36.916Z,75.15
2022-11-17T05:45:38.594Z,75.35
2022-11-17T05:46:40.274Z,75.68
2022-11-17T05:47:41.911Z,75.58
2022-11-17T05:48:43.947Z,75.30
2022-11-17T05:49:45.633Z,75.94
2022-11-17T05:50:47.300Z,75.89
2022-11-17T05:51:52.745Z,75.39
2022-11-17T05:52:54.850Z,75.20
2022-11-17T05:53:56.580Z,75.59
2022-11-17T05:54:58.210Z,75.62
2022-11-17T05:56:10.459Z,75.08
2022-11-17T05:57:19.297Z,75.24
2022-11-17T05:58:27.157Z,75.57
2022-11-17T05:59:52.516Z,75.16
2022-11-17T06:00:56.836Z,75.42
2022-11-17T06:02:07.019Z,75.26
2022-11-17T06:03:15.415Z,75.81
2022-11-17T06:04:19.680Z,75.31
2022-11-17T06:05:24.094Z,76.00
2022-11-17T06:06:25.874Z,75.89
2022-11-17T06:07:27.658Z,75.48
2022-11-17T06:08:30.706Z,75.51
2022-11-17T06:09:35.105Z,75.74
2022-11-17T06:10:36.768Z,76.17
2022-11-17T06:11:38.480Z,75.35
2022-11-17T06:12:40.106Z,75.81
2022-11-17T06:13:41.747Z,76.00
2022-11-17T06:14:43.462Z,76.48
2022-11-17T06:15:45.110Z,76.85
2022-11-17T06:16:50.941Z,75.51
2022-11-17T06:17:59.578Z,75.91
2022-11-17T06:19:09.815Z,76.04
2022-11-17T06:20:21.568Z,76.01
2022-11-17T06:21:23.270Z,76.59
2022-11-17T06:22:26.851Z,76.23
2022-11-17T06:23:32.283Z,76.74
2022-11-17T06:24:34.313Z,76.38
2022-11-17T06:25:38.042Z,75.94
2022-11-17T06:26:41.124Z,75.54
2022-11-17T06:27:43.026Z,76.04
2022-11-17T06:28:47.640Z,75.86
2022-11-17T06:29:50.003Z,75.96
2022-11-17T06:30:51.764Z,75.35
2022-11-17T06:31:53.792Z,75.52
2022-11-17T06:32:56.558Z,75.04
2022-11-17T06:34:01.716Z,75.42
2022-11-17T06:35:06.072Z,75.29
2022-11-17T06:36:08.885Z,75.64
2022-11-17T06:37:14.441Z,75.32
2022-11-17T06:38:16.189Z,75.16
2022-11-17T06:39:17.849Z,75.74
2022-11-17T06:40:19.654Z,75.74
2022-11-17T06:41:21.377Z,76.00
2022-11-17T06:42:43.018Z,76.08
2022-11-17T06:43:44.695Z,75.91
2022-11-17T06:44:46.396Z,75.52
2022-11-17T06:45:48.290Z,75.95
2022-11-17T06:46:50.074Z,76.20
2022-11-17T06:47:54.817Z,76.19
2022-11-17T06:48:56.491Z,76.41
2022-11-17T06:49:58.165Z,77.20
2022-11-17T06:50:59.885Z,77.29
2022-11-17T06:52:01.521Z,76.68
2022-11-17T06:53:07.134Z,77.37
2022-11-17T06:54:09.901Z,77.98
2022-11-17T06:55:11.854Z,78.06
2022-11-17T06:56:13.691Z,77.86
2022-11-17T06:57:15.373Z,77.10
2022-11-17T06:58:17.086Z,77.39
2022-11-17T06:59:18.778Z,77.54
2022-11-17T07:00:20.882Z,77.99
2022-11-17T07:01:22.997Z,78.20
2022-11-17T07:02:24.695Z,78.84
2022-11-17T07:03:26.387Z,78.85
2022-11-17T07:04:28.063Z,79.31
2022-11-17T07:05:31.533Z,79.96
2022-11-17T07:06:36.904Z,80.44
2022-11-17T07:07:38.631Z,80.12
2022-11-17T07:08:40.388Z,80.70
2022-11-17T07:09:42.054Z,80.88
2022-11-17T07:10:49.023Z,80.77
2022-11-17T07:11:51.026Z,81.48
2022-11-17T07:12:52.730Z,81.66
2022-11-17T07:13:54.368Z,81.40
2022-11-17T07:14:56.020Z,82.07
2022-11-17T07:16:07.371Z,82.42
2022-11-17T07:17:08.894Z,82.39
2022-11-17T07:18:10.477Z,82.32
2022-11-17T07:19:13.221Z,82.87
2022-11-17T07:20:15.931Z,82.04
2022-11-17T07:21:18.180Z,81.99
2022-11-17T07:22:19.917Z,81.98
2022-11-17T07:23:22.128Z,82.27
2022-11-17T07:24:23.860Z,81.64
2022-11-17T07:25:25.554Z,81.64
2022-11-17T07:26:27.216Z,82.03
2022-11-17T07:27:30.577Z,81.36
2022-11-17T07:28:34.433Z,80.72
2022-11-17T07:29:36.230Z,81.23
2022-11-17T07:30:37.971Z,80.94
2022-11-17T07:31:39.643Z,80.27
2022-11-17T07:32:41.353Z,80.03
2022-11-17T07:33:43.033Z,80.91
2022-11-17T07:34:44.696Z,81.17
2022-11-17T07:35:46.556Z,81.45
2022-11-17T07:36:48.199Z,81.30
2022-11-17T07:37:49.853Z,80.89
2022-11-17T07:38:51.626Z,81.04
2022-11-17T07:39:53.325Z,81.20
2022-11-17T07:40:58.171Z,80.61
2022-11-17T07:41:59.861Z,80.58
2022-11-17T07:43:01.641Z,80.80
2022-11-17T07:44:03.574Z,79.97
2022-11-17T07:45:05.956Z,79.79
2022-11-17T07:46:11.730Z,80.27
2022-11-17T07:47:13.390Z,79.79
2022-11-17T07:48:15.087Z,79.56
2022-11-17T07:49:17.091Z,79.53
2022-11-17T07:50:18.741Z,79.30
2022-11-17T07:51:21.179Z,79.13
2022-11-17T07:52:22.833Z,78.80
2022-11-17T07:53:24.449Z,79.09
2022-11-17T07:54:26.103Z,78.51
2022-11-17T07:55:27.863Z,78.82
2022-11-17T07:56:29.537Z,78.99
2022-11-17T07:57:31.304Z,78.72
2022-11-17T07:58:33.238Z,78.83
2022-11-17T07:59:35.134Z,78.40
2022-11-17T08:00:36.906Z,78.49
2022-11-17T08:01:39.354Z,78.41
2022-11-17T08:02:41.300Z,78.65
2022-11-17T08:03:44.034Z,78.00
2022-11-17T08:04:45.749Z,78.22
2022-11-17T08:05:47.411Z,77.75
2022-11-17T08:06:49.069Z,77.77
2022-11-17T08:07:59.356Z,77.83
2022-11-17T08:09:01.077Z,77.48
2022-11-17T08:10:03.786Z,77.76
2022-11-17T08:11:08.029Z,76.82
2022-11-17T08:12:09.707Z,77.06
2022-11-17T08:13:11.937Z,76.53
2022-11-17T08:14:13.588Z,76.76
2022-11-17T08:15:15.306Z,76.76
2022-11-17T08:16:17.057Z,76.79
2022-11-17T08:17:18.714Z,76.43
2022-11-17T08:18:20.391Z,76.52
2022-11-17T08:19:22.074Z,76.31
2022-11-17T08:20:24.474Z,76.32
2022-11-17T08:21:26.236Z,76.30
2022-11-17T08:22:27.886Z,76.67
2022-11-17T08:23:29.570Z,76.35
2022-11-17T08:24:31.261Z,76.35
2022-11-17T08:25:32.955Z,76.71
2022-11-17T08:26:34.613Z,76.94
2022-11-17T08:27:36.714Z,76.68
2022-11-17T08:28:39.317Z,76.77
2022-11-17T08:29:41.299Z,76.84
2022-11-17T08:30:44.471Z,77.01
2022-11-17T08:31:46.333Z,77.01
2022-11-17T08:32:49.968Z,77.04
2022-11-17T08:33:51.641Z,77.38
2022-11-17T08:34:53.430Z,77.38
2022-11-17T08:35:58.817Z,77.21
2022-11-17T08:37:00.760Z,77.36
2022-11-17T08:38:02.460Z,77.02
2022-11-17T08:39:04.475Z,77.46
2022-11-17T08:40:06.767Z,77.05
2022-11-17T08:41:08.773Z,77.26
2022-11-17T08:42:10.407Z,77.38
2022-11-17T08:43:12.100Z,77.27
2022-11-17T08:44:13.756Z,77.42
2022-11-17T08:45:15.503Z,77.17
2022-11-17T08:46:17.149Z,77.09
2022-11-17T08:47:18.784Z,77.17
2022-11-17T08:48:20.683Z,76.50
2022-11-17T08:49:22.357Z,77.11
2022-11-17T08:50:24.516Z,76.85
2022-11-17T08:51:27.309Z,77.03
2022-11-17T08:52:29.419Z,77.08
2022-11-17T08:53:31.169Z,77.21
2022-11-17T08:54:32.959Z,77.73
2022-11-17T08:55:41.176Z,78.24
2022-11-17T08:56:43.265Z,78.30
2022-11-17T08:57:45.134Z,78.25
2022-11-17T08:58:46.833Z,79.00
2022-11-17T08:59:48.966Z,79.33
2022-11-17T09:00:50.772Z,79.47
2022-11-17T09:01:53.294Z,79.75
2022-11-17T09:02:54.940Z,80.05
2022-11-17T09:03:56.735Z,80.16
2022-11-17T09:04:58.370Z,80.36
2022-11-17T09:06:02.245Z,80.88
2022-11-17T09:07:04.003Z,80.99
2022-11-17T09:08:29.758Z,81.22
2022-11-17T09:09:29.769Z,82.29
2022-11-17T09:10:31.866Z,82.44
2022-11-17T09:11:33.527Z,83.44
2022-11-17T09:12:35.197Z,83.14
2022-11-17T09:13:38.345Z,83.98
2022-11-17T09:14:40.069Z,84.29
2022-11-17T09:15:41.786Z,84.92
2022-11-17T09:16:43.455Z,84.42
2022-11-17T09:17:47.839Z,85.32
2022-11-17T09:18:55.721Z,85.19
2022-11-17T09:19:57.437Z,85.31
2022-11-17T09:21:03.659Z,85.35
2022-11-17T09:22:06.712Z,85.60
2022-11-17T09:23:08.414Z,85.71
2022-11-17T09:24:10.235Z,86.65
2022-11-17T09:25:13.624Z,86.34
2022-11-17T09:26:16.555Z,86.33
2022-11-17T09:27:18.216Z,86.09
2022-11-17T09:28:19.856Z,85.49
2022-11-17T09:29:21.948Z,85.63
2022-11-17T09:30:23.828Z,86.06
2022-11-17T09:31:25.742Z,85.86
2022-11-17T09:32:27.854Z,85.06
2022-11-17T09:33:29.616Z,84.47
2022-11-17T09:34:31.355Z,84.50
2022-11-17T09:35:33.096Z,84.67
2022-11-17T09:36:35.043Z,84.55
2022-11-17T09:37:36.684Z,84.06
2022-11-17T09:38:39.572Z,84.14
2022-11-17T09:39:41.723Z,83.15
2022-11-17T09:40:43.904Z,82.69
2022-11-17T09:41:50.665Z,82.73
2022-11-17T09:42:52.330Z,81.98
2022-11-17T09:44:15.281Z,82.16
2022-11-17T09:45:29.096Z,81.89
2022-11-17T09:46:57.455Z,81.81
2022-11-17T09:48:38.907Z,82.44
2022-11-17T09:49:58.109Z,82.53
2022-11-17T09:51:03.547Z,82.00
2022-11-17T09:52:21.298Z,82.23
2022-11-17T09:53:35.662Z,81.90
2022-11-17T09:54:47.572Z,81.67
2022-11-17T09:55:58.093Z,80.40
2022-11-17T09:57:01.177Z,79.89
2022-11-17T09:58:05.544Z,79.42
2022-11-17T09:59:13.443Z,78.98
2022-11-17T10:00:21.983Z,79.08
2022-11-17T10:01:23.777Z,80.08
2022-11-17T10:02:25.480Z,80.09
2022-11-17T10:03:40.041Z,80.21
2022-11-17T10:04:43.614Z,80.31
2022-11-17T10:05:46.063Z,80.38
2022-11-17T10:06:50.918Z,80.02
2022-11-17T10:07:54.826Z,79.78
2022-11-17T10:09:25.849Z,80.10
2022-11-17T10:10:43.394Z,79.27
2022-11-17T10:11:46.855Z,79.81
2022-11-17T10:12:55.437Z,78.81
2022-11-17T10:14:03.945Z,78.31
2022-11-17T10:15:27.597Z,78.04
2022-11-17T10:16:29.811Z,78.17
2022-11-17T10:17:32.816Z,77.96
2022-11-17T10:18:39.202Z,77.74
2022-11-17T10:19:43.915Z,77.75
2022-11-17T10:20:46.173Z,78.22
2022-11-17T10:21:55.808Z,78.02
2022-11-17T10:22:57.741Z,78.11
2022-11-17T10:23:59.909Z,78.25
2022-11-17T10:25:01.933Z,77.70
2022-11-17T10:26:09.212Z,77.25
2022-11-17T10:27:24.242Z,76.97
2022-11-17T10:28:32.832Z,77.59
2022-11-17T10:29:34.623Z,77.98
2022-11-17T10:30:36.490Z,78.45
2022-11-17T10:31:46.223Z,77.80
2022-11-17T10:32:56.258Z,78.19
2022-11-17T10:33:58.017Z,77.63
2022-11-17T10:35:33.932Z,77.40
2022-11-17T10:36:35.649Z,77.40
2022-11-17T10:37:52.562Z,77.23
2022-11-17T10:38:56.285Z,77.56
2022-11-17T10:40:20.710Z,77.59
2022-11-17T10:41:42.992Z,77.85
2022-11-17T10:42:56.342Z,77.01
2022-11-17T10:44:04.697Z,76.68
2022-11-17T10:45:15.755Z,76.05
2022-11-17T10:46:17.642Z,76.22
2022-11-17T10:47:40.202Z,76.50
2022-11-17T10:48:56.045Z,76.06
2022-11-17T10:50:21.142Z,76.92
2022-11-17T10:51:27.934Z,75.43
2022-11-17T10:52:29.602Z,75.44
2022-11-17T10:53:45.667Z,74.65
2022-11-17T10:54:49.985Z,74.46
2022-11-17T10:56:25.384Z,74.32
2022-11-17T10:57:27.353Z,72.96
2022-11-17T10:58:31.712Z,73.66
2022-11-17T10:59:57.083Z,73.16
2022-11-17T11:01:04.022Z,73.93
2022-11-17T11:02:25.884Z,74.78
2022-11-17T11:03:36.140Z,73.49
2022-11-17T11:04:41.920Z,71.91
2022-11-17T11:05:58.711Z,70.98
2022-11-17T11:07:26.355Z,70.23
2022-11-17T11:08:51.464Z,71.29
2022-11-17T11:09:53.068Z,73.02
2022-11-17T11:10:57.228Z,72.74
2022-11-17T11:12:02.189Z,71.47
2022-11-17T11:13:25.710Z,70.84
2022-11-17T11:14:56.229Z,70.34
2022-11-17T11:15:58.166Z,70.91
2022-11-17T11:17:00.153Z,70.48
2022-11-17T11:18:02.576Z,70.23
2022-11-17T11:19:13.519Z,70.50
2022-11-17T11:20:17.203Z,70.04
2022-11-17T11:21:33.384Z,68.96
2022-11-17T11:22:38.106Z,68.84
2022-11-17T11:24:00.087Z,68.42
2022-11-17T11:25:29.121Z,68.77
2022-11-17T11:27:12.095Z,69.58
2022-11-17T11:28:44.400Z,69.54
2022-11-17T11:29:55.907Z,69.90
2022-11-17T11:31:15.755Z,70.64
2022-11-17T11:32:20.556Z,70.26
2022-11-17T11:33:56.258Z,69.66
2022-11-17T11:35:52.093Z,69.97
2022-11-17T11:37:10.169Z,71.19
2022-11-17T11:38:30.242Z,71.67
2022-11-17T11:39:31.864Z,70.75
2022-11-17T11:40:42.578Z,70.41
2022-11-17T11:42:07.746Z,70.47
2022-11-17T11:43:48.277Z,71.64
2022-11-17T11:45:19.477Z,71.13
2022-11-17T11:46:48.867Z,72.30
2022-11-17T11:48:13.956Z,70.84
2022-11-17T11:49:21.401Z,71.06
2022-11-17T11:50:27.053Z,70.71
2022-11-17T11:51:38.072Z,70.73
2022-11-17T11:52:46.384Z,70.05
2022-11-17T11:54:26.538Z,69.18
2022-11-17T11:55:32.209Z,69.60
2022-11-17T11:56:46.223Z,69.16
2022-11-17T11:57:55.950Z,68.38
2022-11-17T11:59:02.311Z,67.93
2022-11-17T12:00:07.383Z,68.24
2022-11-17T12:01:12.284Z,68.65
2022-11-17T12:02:20.724Z,67.90
2022-11-17T12:03:31.634Z,68.38
2022-11-17T12:05:01.139Z,69.02
2022-11-17T12:06:40.448Z,68.50
2022-11-17T12:08:20.289Z,67.39
2022-11-17T12:09:40.073Z,68.06
2022-11-17T12:11:24.519Z,68.91
2022-11-17T12:12:47.123Z,68.77
2022-11-17T12:13:53.965Z,68.65
2022-11-17T12:15:13.118Z,68.82
2022-11-17T12:16:33.314Z,68.99
2022-11-17T12:17:35.343Z,68.92
2022-11-17T12:18:37.022Z,69.31
2022-11-17T12:19:45.075Z,69.14
2022-11-17T12:21:13.933Z,69.07
2022-11-17T12:22:30.621Z,69.33
2022-11-17T12:23:53.405Z,68.98
2022-11-17T12:25:19.235Z,69.82
2022-11-17T12:26:27.336Z,70.11
2022-11-17T12:27:32.680Z,70.24
2022-11-17T12:28:35.835Z,70.07
2022-11-17T12:29:46.373Z,69.66
2022-11-17T12:30:51.787Z,69.86
2022-11-17T12:31:56.263Z,70.01
2022-11-17T12:32:59.626Z,70.57
2022-11-17T12:34:01.249Z,70.76
2022-11-17T12:35:21.375Z,70.76
2022-11-17T12:36:34.107Z,70.90
2022-11-17T12:37:36.402Z,71.68
2022-11-17T12:38:39.672Z,71.27
2022-11-17T12:40:04.521Z,71.19
2022-11-17T12:41:06.928Z,71.07
2022-11-17T12:42:08.626Z,70.76
2022-11-17T12:43:16.535Z,71.03
2022-11-17T12:44:37.206Z,70.86
2022-11-17T12:46:16.030Z,69.71
2022-11-17T12:47:22.847Z,70.51
2022-11-17T12:48:36.267Z,70.78
2022-11-17T12:50:04.975Z,70.79
2022-11-17T12:51:26.798Z,70.97
2022-11-17T12:52:35.488Z,70.68
2022-11-17T12:54:05.525Z,71.14
2022-11-17T12:55:17.636Z,71.54
2022-11-17T12:56:56.264Z,71.82
2022-11-17T12:58:26.078Z,71.16
2022-11-17T13:00:13.809Z,71.13
2022-11-17T13:01:15.497Z,70.84
2022-11-17T13:02:53.215Z,71.04
2022-11-17T13:04:13.961Z,71.16
2022-11-17T13:05:21.606Z,71.47
2022-11-17T13:06:38.759Z,71.79
2022-11-17T13:07:40.520Z,71.27
2022-11-17T13:09:03.171Z,71.10
2022-11-17T13:10:05.218Z,71.25
2022-11-17T13:11:15.058Z,71.58
2022-11-17T13:12:22.356Z,71.57
2022-11-17T13:13:25.080Z,72.02
2022-11-17T13:14:26.765Z,71.96
2022-11-17T13:15:28.406Z,72.50
2022-11-17T13:16:31.017Z,72.58
2022-11-17T13:17:34.685Z,72.33
2022-11-17T13:18:41.646Z,72.69
2022-11-17T13:19:44.011Z,73.16
2022-11-17T13:20:49.456Z,73.49
2022-11-17T13:21:59.733Z,73.47
2022-11-17T13:23:14.921Z,73.44
2022-11-17T13:24:29.520Z,73.73
2022-11-17T13:25:31.213Z,73.09
2022-11-17T13:26:38.871Z,72.74
2022-11-17T13:27:48.027Z,72.54
2022-11-17T13:29:11.393Z,72.77
2022-11-17T13:30:31.863Z,72.40
2022-11-17T13:31:33.756Z,72.81
2022-11-17T13:32:39.822Z,72.99
2022-11-17T13:33:41.528Z,72.95
2022-11-17T13:34:49.823Z,72.67
2022-11-17T13:36:20.690Z,72.32
2022-11-17T13:37:27.545Z,72.91
2022-11-17T13:38:29.225Z,72.93
2022-11-17T13:39:31.429Z,72.31
2022-11-17T13:40:35.996Z,72.58
2022-11-17T13:41:39.382Z,72.90
2022-11-17T13:42:41.659Z,73.45
2022-11-17T13:43:45.797Z,73.28
2022-11-17T13:44:48.433Z,73.15
2022-11-17T13:45:51.739Z,73.58
2022-11-17T13:46:53.504Z,73.46
2022-11-17T13:47:55.262Z,73.25
2022-11-17T13:48:57.790Z,73.31
2022-11-17T13:50:31.490Z,73.66
2022-11-17T13:51:43.032Z,73.55
2022-11-17T13:52:47.084Z,73.72
2022-11-17T13:54:03.470Z,73.27
2022-11-17T13:55:19.424Z,73.08
2022-11-17T13:56:29.887Z,73.29
2022-11-17T13:57:31.715Z,73.60
2022-11-17T13:58:42.584Z,73.14
2022-11-17T13:59:44.985Z,74.00
2022-11-17T14:00:54.661Z,73.06
2022-11-17T14:02:20.988Z,73.43
2022-11-17T14:03:52.488Z,73.46
2022-11-17T14:05:15.292Z,73.42
2022-11-17T14:06:17.698Z,74.08
2022-11-17T14:07:30.187Z,74.14
2022-11-17T14:08:33.669Z,74.61
2022-11-17T14:09:35.727Z,74.64
2022-11-17T14:10:38.795Z,75.22
2022-11-17T14:11:41.929Z,75.88
2022-11-17T14:12:43.865Z,76.14
2022-11-17T14:13:49.691Z,76.50
2022-11-17T14:14:51.357Z,76.35
2022-11-17T14:15:59.028Z,76.12
2022-11-17T14:17:14.244Z,76.60
2022-11-17T14:18:28.024Z,76.72
2022-11-17T14:19:33.643Z,76.18
2022-11-17T14:20:36.193Z,76.55
2022-11-17T14:22:26.146Z,76.74
2022-11-17T14:23:31.081Z,76.70
2022-11-17T14:24:33.118Z,76.59
2022-11-17T14:25:40.345Z,77.21
2022-11-17T14:26:44.886Z,77.49
2022-11-17T14:27:51.936Z,77.30
2022-11-17T14:28:56.771Z,77.46
2022-11-17T14:29:58.455Z,78.18